Donalds, South Carolina
Current Conditions -  °F | °C
As of 2:56 AM on Monday 24 Nov 2014 (Local Time) from KGRD Reporting Station
Overcast Overcast  
Wind Chill: 16°   Ceiling: 2800
Heat Index: 16°   Visibility: 10mi
Dew Point: 14°   Wind: 10mph
Humidity: 90%   Direction: 210°SSW
Pressure: 29.79"   Gusts: NA
Location:  34.38°N, 82.35°W
Report Text: KGRD 240756Z AUTO 21009KT 10SM OVC028 16/14 A2979 RMK AO2 SLP085 T01610144
Loading
Personal Weather Stations






























Interactive Weather Map New forecast layout! Learn more

10-Day Weather Forecast

Advertisements
Track Severe Weather on mobile